sensor_id;sensor_type;location;lat;lon;timestamp;pressure;altitude;pressure_sealevel;temperature;humidity
73862;BME280;63459;51.456;-0.916;2023-05-31T17:09:15;101967.58;;;29.85;18.53
73862;BME280;63459;51.456;-0.916;2023-05-31T17:11:40;101966.67;;;29.89;18.29
73862;BME280;63459;51.456;-0.916;2023-05-31T17:14:05;101963.05;;;29.34;18.12
73862;BME280;63459;51.456;-0.916;2023-05-31T17:16:31;101963.17;;;29.81;18.06
73862;BME280;63459;51.456;-0.916;2023-05-31T17:18:59;101965.82;;;30.31;18.13
73862;BME280;63459;51.456;-0.916;2023-05-31T17:21:30;101961.04;;;29.53;18.18
73862;BME280;63459;51.456;-0.916;2023-05-31T17:23:50;101965.74;;;29.75;18.17
73862;BME280;63459;51.456;-0.916;2023-05-31T17:26:15;101955.36;;;29.66;18.10
73862;BME280;63459;51.456;-0.916;2023-05-31T17:28:41;101959.94;;;30.15;18.10
73862;BME280;63459;51.456;-0.916;2023-05-31T17:31:06;101964.63;;;29.81;18.07
73862;BME280;63459;51.456;-0.916;2023-05-31T17:33:31;101970.49;;;29.91;18.14
73862;BME280;63459;51.456;-0.916;2023-05-31T17:36:01;101960.75;;;30.06;18.13
73862;BME280;63459;51.456;-0.916;2023-05-31T17:38:22;101965.57;;;29.86;18.05
73862;BME280;63459;51.456;-0.916;2023-05-31T17:40:47;101966.61;;;30.01;18.07
73862;BME280;63459;51.456;-0.916;2023-05-31T17:43:13;101959.76;;;29.61;18.06
73862;BME280;63459;51.456;-0.916;2023-05-31T17:45:38;101965.27;;;29.80;18.13
73862;BME280;63459;51.456;-0.916;2023-05-31T17:48:05;101967.34;;;30.00;18.15
73862;BME280;63459;51.456;-0.916;2023-05-31T17:50:29;101974.00;;;29.48;18.17
73862;BME280;63459;51.456;-0.916;2023-05-31T17:52:55;101983.36;;;29.52;18.19
73862;BME280;63459;51.456;-0.916;2023-05-31T17:55:21;101979.33;;;29.71;18.13
73862;BME280;63459;51.456;-0.916;2023-05-31T17:57:46;101974.46;;;29.75;18.25
73862;BME280;63459;51.456;-0.916;2023-05-31T18:00:12;101979.22;;;29.86;18.18
73862;BME280;63459;51.456;-0.916;2023-05-31T18:02:37;101980.45;;;29.61;18.17
73862;BME280;63459;51.456;-0.916;2023-05-31T18:05:02;101977.51;;;29.49;18.06
73862;BME280;63459;51.456;-0.916;2023-05-31T18:07:27;101975.48;;;29.24;18.07
73862;BME280;63459;51.456;-0.916;2023-05-31T18:09:52;101977.03;;;29.65;18.14
73862;BME280;63459;51.456;-0.916;2023-05-31T18:12:18;101979.92;;;29.17;18.21
73862;BME280;63459;51.456;-0.916;2023-05-31T18:14:43;101975.33;;;29.47;18.28
73862;BME280;63459;51.456;-0.916;2023-05-31T18:17:09;101976.33;;;29.40;18.36
73862;BME280;63459;51.456;-0.916;2023-05-31T18:19:34;101976.15;;;29.56;18.39
73862;BME280;63459;51.456;-0.916;2023-05-31T18:22:00;101986.73;;;29.25;18.42
73862;BME280;63459;51.456;-0.916;2023-05-31T18:24:25;101977.32;;;28.93;18.29
73862;BME280;63459;51.456;-0.916;2023-05-31T18:26:50;101986.16;;;29.04;18.31
73862;BME280;63459;51.456;-0.916;2023-05-31T18:29:16;101982.88;;;29.53;18.48
73862;BME280;63459;51.456;-0.916;2023-05-31T18:31:41;101984.63;;;29.06;18.59
73862;BME280;63459;51.456;-0.916;2023-05-31T18:34:06;101982.00;;;29.12;18.74
73862;BME280;63459;51.456;-0.916;2023-05-31T18:36:32;101982.18;;;28.91;18.74
73862;BME280;63459;51.456;-0.916;2023-05-31T18:38:56;101979.61;;;29.32;18.81
73862;BME280;63459;51.456;-0.916;2023-05-31T18:41:22;101977.34;;;28.84;18.91
73862;BME280;63459;51.456;-0.916;2023-05-31T18:43:47;101976.65;;;28.77;19.00
73862;BME280;63459;51.456;-0.916;2023-05-31T18:46:13;101980.61;;;28.72;19.01
73862;BME280;63459;51.456;-0.916;2023-05-31T18:51:05;101984.35;;;28.88;19.03
73862;BME280;63459;51.456;-0.916;2023-05-31T18:53:30;101988.68;;;28.50;19.10
73862;BME280;63459;51.456;-0.916;2023-05-31T18:55:55;101985.30;;;28.48;19.14
73862;BME280;63459;51.456;-0.916;2023-05-31T18:58:20;101990.51;;;28.20;19.18
73862;BME280;63459;51.456;-0.916;2023-05-31T19:00:45;101984.36;;;28.67;19.31
73862;BME280;63459;51.456;-0.916;2023-05-31T19:03:11;101978.23;;;28.15;19.39
73862;BME280;63459;51.456;-0.916;2023-05-31T19:05:38;101983.05;;;28.37;19.38
73862;BME280;63459;51.456;-0.916;2023-05-31T19:08:02;101982.38;;;28.17;19.38
73862;BME280;63459;51.456;-0.916;2023-05-31T19:12:53;101986.82;;;28.42;19.39
73862;BME280;63459;51.456;-0.916;2023-05-31T19:15:19;101992.33;;;28.38;19.40
73862;BME280;63459;51.456;-0.916;2023-05-31T19:17:44;101994.86;;;28.31;19.46
73862;BME280;63459;51.456;-0.916;2023-05-31T19:25:00;101993.04;;;28.14;19.75
73862;BME280;63459;51.456;-0.916;2023-05-31T19:27:25;101991.13;;;27.71;19.90
73862;BME280;63459;51.456;-0.916;2023-05-31T19:29:50;101990.07;;;27.88;19.94
73862;BME280;63459;51.456;-0.916;2023-05-31T19:32:15;101987.40;;;27.86;19.97
73862;BME280;63459;51.456;-0.916;2023-05-31T19:34:40;101992.11;;;27.79;20.01
73862;BME280;63459;51.456;-0.916;2023-05-31T19:37:06;101999.85;;;28.00;20.00
73862;BME280;63459;51.456;-0.916;2023-05-31T19:39:31;102000.37;;;28.14;20.06
73862;BME280;63459;51.456;-0.916;2023-05-31T19:41:56;101999.20;;;27.91;20.02
73862;BME280;63459;51.456;-0.916;2023-05-31T19:44:22;102003.35;;;27.69;20.00
73862;BME280;63459;51.456;-0.916;2023-05-31T19:46:47;102005.37;;;27.66;19.97
73862;BME280;63459;51.456;-0.916;2023-05-31T19:49:13;102002.30;;;28.01;20.04
73862;BME280;63459;51.456;-0.916;2023-05-31T19:51:38;102007.72;;;27.60;20.02
73862;BME280;63459;51.456;-0.916;2023-05-31T19:54:04;102001.55;;;27.86;20.01
73862;BME280;63459;51.456;-0.916;2023-05-31T19:56:29;102010.15;;;27.82;20.05
73862;BME280;63459;51.456;-0.916;2023-05-31T19:58:55;102004.66;;;27.78;20.09
73862;BME280;63459;51.456;-0.916;2023-05-31T20:01:20;102012.12;;;27.73;20.10
73862;BME280;63459;51.456;-0.916;2023-05-31T20:03:45;102011.59;;;27.72;20.08
73862;BME280;63459;51.456;-0.916;2023-05-31T20:06:10;102014.38;;;27.70;20.09
73862;BME280;63459;51.456;-0.916;2023-05-31T20:08:35;102013.71;;;27.47;20.09
73862;BME280;63459;51.456;-0.916;2023-05-31T20:15:52;102021.89;;;27.33;20.22
73862;BME280;63459;51.456;-0.916;2023-05-31T20:18:17;102025.82;;;27.26;20.24
73862;BME280;63459;51.456;-0.916;2023-05-31T20:20:42;102022.85;;;27.41;20.27
73862;BME280;63459;51.456;-0.916;2023-05-31T20:23:07;102036.38;;;27.29;20.29
73862;BME280;63459;51.456;-0.916;2023-05-31T20:25:33;102029.04;;;27.18;20.24
73862;BME280;63459;51.456;-0.916;2023-05-31T20:27:58;102028.28;;;26.90;20.28
73862;BME280;63459;51.456;-0.916;2023-05-31T20:30:24;102036.69;;;27.32;20.26
73862;BME280;63459;51.456;-0.916;2023-05-31T20:35:14;102032.03;;;27.10;20.33
73862;BME280;63459;51.456;-0.916;2023-05-31T20:37:39;102039.66;;;26.78;20.44
73862;BME280;63459;51.456;-0.916;2023-05-31T20:40:06;102038.54;;;26.48;20.50
73862;BME280;63459;51.456;-0.916;2023-05-31T20:44:56;102050.29;;;26.75;20.64
73862;BME280;63459;51.456;-0.916;2023-05-31T20:49:46;102055.50;;;26.70;20.68
73862;BME280;63459;51.456;-0.916;2023-05-31T20:52:12;102053.47;;;26.43;20.65
73862;BME280;63459;51.456;-0.916;2023-05-31T20:57:03;102057.93;;;26.55;20.67
73862;BME280;63459;51.456;-0.916;2023-05-31T20:59:27;102054.85;;;26.54;20.69
73862;BME280;63459;51.456;-0.916;2023-05-31T21:01:53;102048.34;;;26.22;20.79
73862;BME280;63459;51.456;-0.916;2023-05-31T21:04:18;102046.70;;;26.40;20.80
73862;BME280;63459;51.456;-0.916;2023-05-31T21:06:43;102051.77;;;26.34;20.86
73862;BME280;63459;51.456;-0.916;2023-05-31T21:09:09;102052.39;;;26.59;20.80
73862;BME280;63459;51.456;-0.916;2023-05-31T21:11:34;102053.82;;;25.95;20.80
73862;BME280;63459;51.456;-0.916;2023-05-31T21:13:59;102062.70;;;26.52;20.79
73862;BME280;63459;51.456;-0.916;2023-05-31T21:16:25;102055.49;;;25.80;20.82
73862;BME280;63459;51.456;-0.916;2023-05-31T21:18:50;102056.18;;;25.92;20.87
73862;BME280;63459;51.456;-0.916;2023-05-31T21:21:16;102057.11;;;26.18;20.84
73862;BME280;63459;51.456;-0.916;2023-05-31T21:23:41;102055.66;;;26.40;20.82
73862;BME280;63459;51.456;-0.916;2023-05-31T21:26:07;102053.45;;;26.53;20.89
73862;BME280;63459;51.456;-0.916;2023-05-31T21:28:32;102055.32;;;26.05;20.91
73862;BME280;63459;51.456;-0.916;2023-05-31T21:30:57;102052.73;;;25.93;20.98
73862;BME280;63459;51.456;-0.916;2023-05-31T21:33:23;102056.07;;;26.39;20.93
73862;BME280;63459;51.456;-0.916;2023-05-31T21:38:13;102056.01;;;26.11;20.90
73862;BME280;63459;51.456;-0.916;2023-05-31T21:40:39;102063.17;;;26.12;20.90
73862;BME280;63459;51.456;-0.916;2023-05-31T21:43:04;102049.57;;;26.11;20.92
73862;BME280;63459;51.456;-0.916;2023-05-31T21:45:29;102062.66;;;25.72;21.00
73862;BME280;63459;51.456;-0.916;2023-05-31T21:47:55;102056.80;;;26.05;21.09
73862;BME280;63459;51.456;-0.916;2023-05-31T21:50:20;102065.16;;;25.80;21.14
73862;BME280;63459;51.456;-0.916;2023-05-31T21:52:46;102060.31;;;25.62;21.11
73862;BME280;63459;51.456;-0.916;2023-05-31T21:55:12;102062.22;;;26.11;21.09
73862;BME280;63459;51.456;-0.916;2023-05-31T21:57:37;102057.31;;;26.08;21.08
73862;BME280;63459;51.456;-0.916;2023-05-31T22:00:05;102060.19;;;25.48;21.12
73862;BME280;63459;51.456;-0.916;2023-05-31T22:02:28;102062.42;;;25.72;21.06
73862;BME280;63459;51.456;-0.916;2023-05-31T22:04:53;102053.26;;;25.79;21.15
73862;BME280;63459;51.456;-0.916;2023-05-31T22:07:18;102053.96;;;25.80;21.16
73862;BME280;63459;51.456;-0.916;2023-05-31T22:09:43;102056.31;;;25.84;21.20
73862;BME280;63459;51.456;-0.916;2023-05-31T22:12:08;102060.60;;;25.70;21.17
73862;BME280;63459;51.456;-0.916;2023-05-31T22:14:33;102056.77;;;25.82;21.10
73862;BME280;63459;51.456;-0.916;2023-05-31T22:16:59;102063.82;;;25.86;21.05
73862;BME280;63459;51.456;-0.916;2023-05-31T22:19:24;102055.05;;;26.07;20.99
73862;BME280;63459;51.456;-0.916;2023-05-31T22:21:49;102065.30;;;25.69;20.96
73862;BME280;63459;51.456;-0.916;2023-05-31T22:24:15;102067.29;;;25.99;21.03
73862;BME280;63459;51.456;-0.916;2023-05-31T22:26:42;102060.51;;;26.12;21.13
73862;BME280;63459;51.456;-0.916;2023-05-31T22:29:05;102073.77;;;25.39;21.20
73862;BME280;63459;51.456;-0.916;2023-05-31T22:33:56;102064.02;;;25.72;21.33
73862;BME280;63459;51.456;-0.916;2023-05-31T22:36:22;102065.31;;;25.31;21.34
73862;BME280;63459;51.456;-0.916;2023-05-31T22:38:48;102067.75;;;25.56;21.34
73862;BME280;63459;51.456;-0.916;2023-05-31T22:41:13;102071.60;;;26.02;21.34
73862;BME280;63459;51.456;-0.916;2023-05-31T22:43:38;102064.02;;;25.75;21.40
73862;BME280;63459;51.456;-0.916;2023-05-31T22:46:05;102067.44;;;25.58;21.37
73862;BME280;63459;51.456;-0.916;2023-05-31T22:48:28;102066.77;;;25.96;21.43
73862;BME280;63459;51.456;-0.916;2023-05-31T22:50:54;102063.51;;;25.71;21.43
73862;BME280;63459;51.456;-0.916;2023-05-31T22:53:20;102062.70;;;25.30;21.56
73862;BME280;63459;51.456;-0.916;2023-05-31T22:55:45;102070.82;;;25.26;21.63
73862;BME280;63459;51.456;-0.916;2023-05-31T22:58:11;102073.31;;;25.65;21.49
73862;BME280;63459;51.456;-0.916;2023-05-31T23:00:35;102068.84;;;25.37;21.45
73862;BME280;63459;51.456;-0.916;2023-05-31T23:03:01;102069.02;;;25.16;21.48
73862;BME280;63459;51.456;-0.916;2023-05-31T23:05:26;102079.46;;;25.55;21.55
73862;BME280;63459;51.456;-0.916;2023-05-31T23:07:51;102080.97;;;25.56;21.56
73862;BME280;63459;51.456;-0.916;2023-05-31T23:10:16;102076.64;;;25.37;21.54
73862;BME280;63459;51.456;-0.916;2023-05-31T23:12:42;102079.25;;;25.90;21.46
73862;BME280;63459;51.456;-0.916;2023-05-31T23:15:08;102073.38;;;25.84;21.33
73862;BME280;63459;51.456;-0.916;2023-05-31T23:17:33;102072.17;;;25.38;21.30
73862;BME280;63459;51.456;-0.916;2023-05-31T23:19:58;102083.06;;;25.86;21.30
73862;BME280;63459;51.456;-0.916;2023-05-31T23:22:24;102093.07;;;25.36;21.39
73862;BME280;63459;51.456;-0.916;2023-05-31T23:24:49;102090.53;;;25.29;21.41
73862;BME280;63459;51.456;-0.916;2023-05-31T23:27:15;102079.97;;;25.61;21.44
73862;BME280;63459;51.456;-0.916;2023-05-31T23:29:40;102082.37;;;25.07;21.47
73862;BME280;63459;51.456;-0.916;2023-05-31T23:32:07;102083.60;;;24.92;21.56
73862;BME280;63459;51.456;-0.916;2023-05-31T23:34:31;102086.85;;;24.80;21.61
73862;BME280;63459;51.456;-0.916;2023-05-31T23:36:56;102088.06;;;24.86;21.73
73862;BME280;63459;51.456;-0.916;2023-05-31T23:39:21;102082.63;;;25.00;21.83
73862;BME280;63459;51.456;-0.916;2023-05-31T23:41:46;102089.79;;;24.96;21.87
73862;BME280;63459;51.456;-0.916;2023-05-31T23:44:12;102093.87;;;25.03;21.84
73862;BME280;63459;51.456;-0.916;2023-05-31T23:46:37;102094.79;;;25.12;21.79
73862;BME280;63459;51.456;-0.916;2023-05-31T23:49:03;102097.00;;;25.05;21.81
73862;BME280;63459;51.456;-0.916;2023-05-31T23:51:28;102094.34;;;25.43;21.89
73862;BME280;63459;51.456;-0.916;2023-05-31T23:53:54;102100.51;;;24.87;21.91
73862;BME280;63459;51.456;-0.916;2023-05-31T23:56:19;102096.55;;;24.65;21.93
73862;BME280;63459;51.456;-0.916;2023-05-31T23:58:44;102104.14;;;25.10;21.94
